McFarland, Kansas
Current Conditions -  °F | °C
As of 4:52 AM on Wednesday 26 Nov 2014 (Local Time) from KMHK Reporting Station
Clear Clear  
Wind Chill: 35°   Ceiling: Unl
Heat Index: 41°   Visibility: 10mi
Dew Point: 30°   Wind: 9mph
Humidity: 65%   Direction: 290°WNW
Pressure: 29.97"   Gusts: NA
Location:  39.05°N, 96.24°W
Report Text: KMHK 261052Z AUTO 29008KT 10SM CLR 05/M01 A2997 RMK AO2 SLP153 T00501011 TSNO
Loading
Personal Weather Stations






























Interactive Weather Map New forecast layout! Learn more

10-Day Weather Forecast

Advertisements
Track Severe Weather on mobile